createdAt,value
2019-04-25T00:01:04.547Z,14.68
2019-04-25T00:02:21.221Z,14.62
2019-04-25T00:03:45.524Z,14.60
2019-04-25T00:04:54.059Z,14.60
2019-04-25T00:05:58.865Z,14.59
2019-04-25T00:07:03.332Z,14.61
2019-04-25T00:08:08.067Z,14.64
2019-04-25T00:09:14.410Z,14.62
2019-04-25T00:10:18.962Z,14.65
2019-04-25T00:11:23.941Z,14.76
2019-04-25T00:12:28.691Z,14.78
2019-04-25T00:13:35.062Z,14.84
2019-04-25T00:14:41.671Z,14.85
2019-04-25T00:15:47.111Z,14.85
2019-04-25T00:16:52.604Z,14.87
2019-04-25T00:17:57.067Z,14.84
2019-04-25T00:19:01.934Z,14.81
2019-04-25T00:20:07.960Z,14.80
2019-04-25T00:21:14.090Z,14.68
2019-04-25T00:22:36.546Z,14.62
2019-04-25T00:23:43.708Z,14.64
2019-04-25T00:25:15.028Z,14.75
2019-04-25T00:26:14.125Z,14.70
2019-04-25T00:27:18.587Z,14.76
2019-04-25T00:28:23.182Z,14.77
2019-04-25T00:29:27.648Z,14.79
2019-04-25T00:30:33.004Z,14.70
2019-04-25T00:31:37.467Z,14.75
2019-04-25T00:32:42.914Z,14.80
2019-04-25T00:33:48.241Z,14.83
2019-04-25T00:34:52.841Z,14.86
2019-04-25T00:35:57.370Z,14.84
2019-04-25T00:37:02.512Z,14.92
2019-04-25T00:38:07.476Z,14.98
2019-04-25T00:39:11.958Z,15.00
2019-04-25T00:40:16.692Z,15.00
2019-04-25T00:41:21.446Z,14.96
2019-04-25T00:42:25.913Z,14.97
2019-04-25T00:43:31.444Z,14.96
2019-04-25T00:44:36.088Z,14.95
2019-04-25T00:45:42.421Z,14.92
2019-04-25T00:46:49.082Z,14.86
2019-04-25T00:47:53.044Z,14.83
2019-04-25T00:48:57.511Z,14.85
2019-04-25T00:50:02.419Z,14.82
2019-04-25T00:51:06.970Z,14.76
2019-04-25T00:52:11.703Z,14.73
2019-04-25T00:53:16.203Z,14.65
2019-04-25T00:54:22.552Z,14.59
2019-04-25T00:55:29.005Z,14.56
2019-04-25T00:56:33.004Z,14.47
2019-04-25T00:57:38.434Z,14.49
2019-04-25T00:58:59.608Z,14.49
2019-04-25T01:00:21.641Z,14.45
2019-04-25T01:01:41.365Z,14.44
2019-04-25T01:02:48.338Z,14.47
2019-04-25T01:03:54.505Z,14.40
2019-04-25T01:04:58.916Z,14.37
2019-04-25T01:06:03.901Z,14.36
2019-04-25T01:07:08.702Z,14.34
2019-04-25T01:08:13.169Z,14.31
2019-04-25T01:09:18.304Z,14.31
2019-04-25T01:10:23.126Z,14.34
2019-04-25T01:11:27.828Z,14.33
2019-04-25T01:12:32.287Z,14.27
2019-04-25T01:13:36.765Z,14.29
2019-04-25T01:14:42.038Z,14.30
2019-04-25T01:15:47.059Z,14.28
2019-04-25T01:16:52.978Z,14.28
2019-04-25T01:17:58.030Z,14.26
2019-04-25T01:19:03.534Z,14.26
2019-04-25T01:20:08.431Z,14.27
2019-04-25T01:21:14.132Z,14.25
2019-04-25T01:22:19.046Z,14.26
2019-04-25T01:23:23.756Z,14.26
2019-04-25T01:24:28.327Z,14.23
2019-04-25T01:25:40.989Z,14.22
2019-04-25T01:26:39.532Z,14.26
2019-04-25T01:27:43.987Z,14.28
2019-04-25T01:28:48.455Z,14.32
2019-04-25T01:29:54.454Z,14.33
2019-04-25T01:31:00.556Z,14.34
2019-04-25T01:32:06.483Z,14.37
2019-04-25T01:33:11.346Z,14.41
2019-04-25T01:34:17.451Z,14.41
2019-04-25T01:35:26.250Z,14.42
2019-04-25T01:36:35.422Z,14.39
2019-04-25T01:37:57.825Z,14.40
2019-04-25T01:39:20.068Z,14.40
2019-04-25T01:40:43.912Z,14.39
2019-04-25T01:41:50.103Z,14.39
2019-04-25T01:43:09.451Z,14.42
2019-04-25T01:44:28.115Z,14.42
2019-04-25T01:45:34.517Z,14.44
2019-04-25T01:46:40.554Z,14.44
2019-04-25T01:47:45.545Z,14.48
2019-04-25T01:48:50.257Z,14.54
2019-04-25T01:49:56.592Z,14.52
2019-04-25T01:51:04.014Z,14.53
2019-04-25T01:52:08.643Z,14.51
2019-04-25T01:53:14.619Z,14.53
2019-04-25T01:54:19.304Z,14.52
2019-04-25T01:55:23.764Z,14.53
2019-04-25T01:56:28.229Z,14.55
2019-04-25T01:57:33.752Z,14.53
2019-04-25T01:58:38.247Z,14.54
2019-04-25T01:59:43.845Z,14.54
2019-04-25T02:00:51.347Z,14.55
2019-04-25T02:01:56.792Z,14.54
2019-04-25T02:03:03.692Z,14.53
2019-04-25T02:04:08.477Z,14.56
2019-04-25T02:05:13.984Z,14.54
2019-04-25T02:06:18.521Z,14.54
2019-04-25T02:07:23.356Z,14.50
2019-04-25T02:08:28.013Z,14.52
2019-04-25T02:09:33.695Z,14.44
2019-04-25T02:10:38.732Z,14.49
2019-04-25T02:11:44.908Z,14.45
2019-04-25T02:12:52.190Z,14.47
2019-04-25T02:13:58.892Z,14.49
2019-04-25T02:15:05.873Z,14.50
2019-04-25T02:16:09.713Z,14.54
2019-04-25T02:17:14.273Z,14.53
2019-04-25T02:18:18.734Z,14.52
2019-04-25T02:19:24.150Z,14.51
2019-04-25T02:20:28.746Z,14.54
2019-04-25T02:21:33.595Z,14.47
2019-04-25T02:22:38.410Z,14.47
2019-04-25T02:23:44.174Z,14.49
2019-04-25T02:24:49.177Z,14.47
2019-04-25T02:26:06.781Z,14.44
2019-04-25T02:27:00.799Z,14.34
2019-04-25T02:28:05.799Z,14.33
2019-04-25T02:29:10.603Z,14.39
2019-04-25T02:30:16.194Z,14.37
2019-04-25T02:31:20.654Z,14.25
2019-04-25T02:32:25.471Z,14.19
2019-04-25T02:33:29.981Z,14.19
2019-04-25T02:34:34.864Z,14.23
2019-04-25T02:35:42.899Z,14.22
2019-04-25T02:36:46.961Z,14.16
2019-04-25T02:37:51.704Z,14.08
2019-04-25T02:38:58.513Z,14.15
2019-04-25T02:40:05.825Z,14.06
2019-04-25T02:41:09.137Z,14.03
2019-04-25T02:42:16.753Z,13.94
2019-04-25T02:43:20.260Z,13.98
2019-04-25T02:44:24.991Z,14.03
2019-04-25T02:45:37.564Z,14.01
2019-04-25T02:47:03.329Z,13.98
2019-04-25T02:48:09.326Z,13.98
2019-04-25T02:49:34.877Z,13.90
2019-04-25T02:50:34.221Z,13.89
2019-04-25T02:51:55.033Z,13.81
2019-04-25T02:53:07.293Z,13.73
2019-04-25T02:54:14.029Z,13.68
2019-04-25T02:55:30.773Z,13.68
2019-04-25T02:56:33.078Z,13.71
2019-04-25T02:57:30.895Z,13.75
2019-04-25T02:58:35.793Z,13.78
2019-04-25T02:59:40.613Z,13.79
2019-04-25T03:00:52.621Z,13.85
2019-04-25T03:01:51.385Z,13.90
2019-04-25T03:02:57.284Z,13.94
2019-04-25T03:04:04.880Z,13.98
2019-04-25T03:05:10.039Z,14.01
2019-04-25T03:06:15.263Z,14.03
2019-04-25T03:07:19.924Z,14.07
2019-04-25T03:08:24.606Z,14.09
2019-04-25T03:09:29.619Z,14.09
2019-04-25T03:10:34.885Z,14.10
2019-04-25T03:11:39.811Z,14.12
2019-04-25T03:12:44.713Z,14.09
2019-04-25T03:13:49.336Z,14.10
2019-04-25T03:14:55.040Z,14.16
2019-04-25T03:16:00.719Z,14.26
2019-04-25T03:17:09.731Z,14.32
2019-04-25T03:18:15.349Z,14.39
2019-04-25T03:19:26.263Z,14.45
2019-04-25T03:20:48.739Z,14.49
2019-04-25T03:22:01.562Z,14.47
2019-04-25T03:23:09.498Z,14.46
2019-04-25T03:24:16.815Z,14.45
2019-04-25T03:25:20.488Z,14.42
2019-04-25T03:26:24.958Z,14.42
2019-04-25T03:27:30.051Z,14.38
2019-04-25T03:28:36.096Z,14.39
2019-04-25T03:29:40.582Z,14.40
2019-04-25T03:30:45.167Z,14.40
2019-04-25T03:31:49.702Z,14.39
2019-04-25T03:32:56.154Z,14.40
2019-04-25T03:34:02.561Z,14.42
2019-04-25T03:35:07.441Z,14.48
2019-04-25T03:36:11.915Z,14.50
2019-04-25T03:37:16.390Z,14.54
2019-04-25T03:38:20.845Z,14.55
2019-04-25T03:39:27.065Z,14.57
2019-04-25T03:40:31.980Z,14.61
2019-04-25T03:41:36.452Z,14.65
2019-04-25T03:42:41.281Z,14.68
2019-04-25T03:43:45.747Z,14.70
2019-04-25T03:44:50.543Z,14.71
2019-04-25T03:45:55.303Z,14.75
2019-04-25T03:47:00.080Z,14.83
2019-04-25T03:48:05.634Z,14.89
2019-04-25T03:49:10.878Z,14.90
2019-04-25T03:50:15.537Z,14.93
2019-04-25T03:51:20.078Z,14.95
2019-04-25T03:52:24.547Z,14.97
2019-04-25T03:53:29.093Z,15.01
2019-04-25T03:54:33.583Z,14.99
2019-04-25T03:55:38.434Z,15.00
2019-04-25T03:56:53.279Z,15.05
2019-04-25T03:57:49.452Z,15.03
2019-04-25T03:58:54.079Z,15.01
2019-04-25T03:59:58.549Z,15.03
2019-04-25T04:01:06.618Z,15.07
2019-04-25T04:02:09.188Z,15.10
2019-04-25T04:03:15.161Z,15.09
2019-04-25T04:04:20.088Z,15.09
2019-04-25T04:05:24.880Z,15.11
2019-04-25T04:06:29.347Z,15.09
2019-04-25T04:07:33.816Z,15.10
2019-04-25T04:08:38.280Z,15.14
2019-04-25T04:09:43.608Z,15.13
2019-04-25T04:10:48.204Z,15.11
2019-04-25T04:11:53.431Z,15.09
2019-04-25T04:12:58.415Z,15.11
2019-04-25T04:14:04.930Z,15.10
2019-04-25T04:15:09.143Z,15.09
2019-04-25T04:16:15.744Z,15.04
2019-04-25T04:17:36.712Z,15.07
2019-04-25T04:18:44.207Z,15.06
2019-04-25T04:19:56.322Z,15.06
2019-04-25T04:21:17.541Z,15.03
2019-04-25T04:22:24.124Z,14.98
2019-04-25T04:23:30.237Z,14.98
2019-04-25T04:24:36.640Z,14.96
2019-04-25T04:25:41.493Z,14.97
2019-04-25T04:26:47.601Z,14.94
2019-04-25T04:27:53.718Z,14.94
2019-04-25T04:28:58.634Z,14.94
2019-04-25T04:30:04.188Z,14.93
2019-04-25T04:31:09.093Z,14.94
2019-04-25T04:32:14.775Z,14.94
2019-04-25T04:33:29.569Z,14.90
2019-04-25T04:34:26.237Z,14.86
2019-04-25T04:35:30.708Z,14.85
2019-04-25T04:36:35.174Z,14.85
2019-04-25T04:37:39.648Z,14.83
2019-04-25T04:38:44.496Z,14.81
2019-04-25T04:39:49.222Z,14.76
2019-04-25T04:40:55.145Z,14.74
2019-04-25T04:41:59.765Z,14.71
2019-04-25T04:43:05.092Z,14.68
2019-04-25T04:44:09.987Z,14.74
2019-04-25T04:45:15.774Z,14.69
2019-04-25T04:46:20.681Z,14.67
2019-04-25T04:47:25.794Z,14.66
2019-04-25T04:48:30.425Z,14.64
2019-04-25T04:49:35.208Z,14.66
2019-04-25T04:50:40.149Z,14.64
2019-04-25T04:51:44.622Z,14.60
2019-04-25T04:52:50.263Z,14.58
2019-04-25T04:53:54.729Z,14.55
2019-04-25T04:55:06.489Z,14.52
2019-04-25T04:56:05.782Z,14.52
2019-04-25T04:57:25.704Z,14.50
2019-04-25T04:58:17.619Z,14.46
2019-04-25T04:59:24.699Z,14.47
2019-04-25T05:00:28.615Z,14.45
2019-04-25T05:01:34.725Z,14.41
2019-04-25T05:02:50.993Z,14.38
2019-04-25T05:03:57.099Z,14.36
2019-04-25T05:05:06.252Z,14.33
2019-04-25T05:06:16.257Z,14.31
2019-04-25T05:07:23.732Z,14.30
2019-04-25T05:08:31.063Z,14.27
2019-04-25T05:09:35.876Z,14.19
2019-04-25T05:10:40.672Z,14.18
2019-04-25T05:11:45.412Z,14.15
2019-04-25T05:12:49.880Z,14.12
2019-04-25T05:13:54.343Z,14.09
2019-04-25T05:14:58.818Z,14.11
2019-04-25T05:16:03.669Z,14.12
2019-04-25T05:17:08.489Z,14.11
2019-04-25T05:18:15.639Z,14.06
2019-04-25T05:19:19.780Z,14.06
2019-04-25T05:20:24.470Z,14.06
2019-04-25T05:21:28.958Z,14.04
2019-04-25T05:22:33.988Z,14.03
2019-04-25T05:23:38.457Z,14.03
2019-04-25T05:24:43.846Z,14.02
2019-04-25T05:25:48.939Z,14.01
2019-04-25T05:26:54.005Z,13.99
2019-04-25T05:28:02.879Z,13.97
2019-04-25T05:29:04.737Z,13.97
2019-04-25T05:30:11.494Z,13.95
2019-04-25T05:31:20.053Z,13.96
2019-04-25T05:32:25.240Z,13.97
2019-04-25T05:33:30.200Z,13.99
2019-04-25T05:34:35.742Z,13.98
2019-04-25T05:35:40.204Z,14.00
2019-04-25T05:36:44.684Z,13.99
2019-04-25T05:37:49.145Z,13.99
2019-04-25T05:38:53.931Z,14.05
2019-04-25T05:39:58.457Z,14.08
2019-04-25T05:41:04.571Z,14.10
2019-04-25T05:42:11.010Z,14.13
2019-04-25T05:43:16.449Z,14.18
2019-04-25T05:44:21.078Z,14.20
2019-04-25T05:45:27.251Z,14.23
2019-04-25T05:46:32.017Z,14.20
2019-04-25T05:47:37.404Z,14.20
2019-04-25T05:48:43.820Z,14.23
2019-04-25T05:49:48.644Z,14.28
2019-04-25T05:50:53.788Z,14.29
2019-04-25T05:51:58.679Z,14.28
2019-04-25T05:53:04.287Z,14.31
2019-04-25T05:54:08.832Z,14.25
2019-04-25T05:55:14.256Z,14.26
2019-04-25T05:56:20.152Z,14.28
2019-04-25T05:57:25.020Z,14.31
2019-04-25T05:58:30.259Z,14.39
2019-04-25T05:59:35.076Z,14.41
2019-04-25T06:00:44.015Z,14.41
2019-04-25T06:01:48.838Z,14.46
2019-04-25T06:02:53.441Z,14.43
2019-04-25T06:03:57.837Z,14.49
2019-04-25T06:05:03.584Z,14.48
2019-04-25T06:06:08.042Z,14.45
2019-04-25T06:07:14.490Z,14.41
2019-04-25T06:08:21.298Z,14.42
2019-04-25T06:09:28.112Z,14.45
2019-04-25T06:10:34.170Z,14.27
2019-04-25T06:11:48.811Z,14.25
2019-04-25T06:13:13.816Z,14.18
2019-04-25T06:14:20.643Z,14.17
2019-04-25T06:15:27.062Z,14.28
2019-04-25T06:16:33.338Z,14.48
2019-04-25T06:17:45.178Z,14.61
2019-04-25T06:19:13.669Z,14.72
2019-04-25T06:20:11.384Z,14.68
2019-04-25T06:21:15.846Z,14.64
2019-04-25T06:22:25.553Z,14.57
2019-04-25T06:23:47.644Z,14.51
2019-04-25T06:24:54.267Z,14.46
2019-04-25T06:25:58.773Z,14.46
2019-04-25T06:27:16.763Z,14.56
2019-04-25T06:28:23.957Z,14.65
2019-04-25T06:29:29.262Z,14.73
2019-04-25T06:30:35.215Z,14.80
2019-04-25T06:31:39.903Z,14.83
2019-04-25T06:32:44.390Z,14.81
2019-04-25T06:33:48.969Z,14.80
2019-04-25T06:34:54.258Z,14.76
2019-04-25T06:35:59.139Z,14.74
2019-04-25T06:37:04.823Z,14.80
2019-04-25T06:38:09.916Z,14.88
2019-04-25T06:39:15.346Z,15.11
2019-04-25T06:40:20.567Z,15.24
2019-04-25T06:41:26.183Z,15.43
2019-04-25T06:42:31.463Z,15.56
2019-04-25T06:43:37.849Z,15.66
2019-04-25T06:44:53.476Z,15.77
2019-04-25T06:46:15.669Z,15.96
2019-04-25T06:47:25.648Z,16.09
2019-04-25T06:48:37.899Z,16.35
2019-04-25T06:49:43.339Z,16.41
2019-04-25T06:50:47.794Z,16.37
2019-04-25T06:51:54.641Z,16.39
2019-04-25T06:52:59.416Z,16.60
2019-04-25T06:54:04.150Z,16.69
2019-04-25T06:55:08.751Z,16.68
2019-04-25T06:56:14.569Z,16.70
2019-04-25T06:57:19.046Z,16.77
2019-04-25T06:58:26.907Z,16.90
2019-04-25T06:59:30.153Z,17.05
2019-04-25T07:00:40.935Z,17.11
2019-04-25T07:01:40.838Z,17.22
2019-04-25T07:02:45.311Z,17.30
2019-04-25T07:03:50.054Z,17.25
2019-04-25T07:04:54.811Z,17.23
2019-04-25T07:05:59.267Z,17.34
2019-04-25T07:07:10.554Z,17.42
2019-04-25T07:08:10.559Z,17.57
2019-04-25T07:09:17.531Z,17.62
2019-04-25T07:10:24.180Z,17.52
2019-04-25T07:11:28.305Z,17.55
2019-04-25T07:12:34.457Z,17.69
2019-04-25T07:13:39.183Z,17.69
2019-04-25T07:14:43.983Z,17.74
2019-04-25T07:15:48.578Z,17.77
2019-04-25T07:16:53.326Z,17.61
2019-04-25T07:17:57.775Z,17.94
2019-04-25T07:19:02.388Z,18.10
2019-04-25T07:20:09.897Z,18.20
2019-04-25T07:21:15.727Z,18.33
2019-04-25T07:22:20.255Z,18.53
2019-04-25T07:23:25.448Z,18.36
2019-04-25T07:24:30.170Z,18.18
2019-04-25T07:25:36.742Z,18.46
2019-04-25T07:26:45.833Z,18.34
2019-04-25T07:27:58.005Z,18.38
2019-04-25T07:29:05.386Z,18.56
2019-04-25T07:30:46.839Z,18.63
2019-04-25T07:31:42.419Z,18.72
2019-04-25T07:32:57.406Z,18.66
2019-04-25T07:34:03.652Z,18.56
2019-04-25T07:35:08.547Z,18.26
2019-04-25T07:36:13.835Z,18.07
2019-04-25T07:37:19.205Z,17.95
2019-04-25T07:38:25.535Z,17.85
2019-04-25T07:39:30.363Z,17.66
2019-04-25T07:40:35.223Z,17.63
2019-04-25T07:41:40.590Z,17.70
2019-04-25T07:42:45.121Z,17.66
2019-04-25T07:43:49.668Z,17.67
2019-04-25T07:44:55.205Z,17.64
2019-04-25T07:45:59.797Z,17.60
2019-04-25T07:47:04.780Z,17.57
2019-04-25T07:48:09.630Z,17.55
2019-04-25T07:49:14.104Z,17.52
2019-04-25T07:50:18.900Z,17.61
2019-04-25T07:51:23.738Z,17.81
2019-04-25T07:52:29.689Z,17.94
2019-04-25T07:53:35.135Z,17.92
2019-04-25T07:54:40.498Z,18.01
2019-04-25T07:55:44.958Z,18.00
2019-04-25T07:56:49.426Z,18.09
2019-04-25T07:57:54.185Z,17.83
2019-04-25T07:58:58.661Z,17.84
2019-04-25T08:00:04.779Z,17.70
2019-04-25T08:01:11.887Z,17.52
2019-04-25T08:02:17.957Z,17.55
2019-04-25T08:03:23.736Z,17.44
2019-04-25T08:04:29.053Z,17.48
2019-04-25T08:05:35.168Z,17.49
2019-04-25T08:06:39.806Z,17.60
2019-04-25T08:07:44.560Z,17.65
2019-04-25T08:08:49.428Z,17.72
2019-04-25T08:09:54.273Z,17.88
2019-04-25T08:11:04.051Z,18.24
2019-04-25T08:12:08.632Z,18.45
2019-04-25T08:13:13.361Z,18.73
2019-04-25T08:14:35.132Z,18.79
2019-04-25T08:15:43.955Z,18.93
2019-04-25T08:16:53.785Z,19.18
2019-04-25T08:18:06.449Z,18.97
2019-04-25T08:19:13.623Z,18.94
2019-04-25T08:20:18.935Z,19.00
2019-04-25T08:21:23.954Z,18.90
2019-04-25T08:22:30.040Z,18.87
2019-04-25T08:23:37.554Z,18.94
2019-04-25T08:24:43.872Z,18.86
2019-04-25T08:25:48.428Z,18.77
2019-04-25T08:26:53.461Z,18.65
2019-04-25T08:27:58.086Z,18.59
2019-04-25T08:29:03.632Z,18.59
2019-04-25T08:30:08.872Z,18.55
2019-04-25T08:31:13.622Z,18.61
2019-04-25T08:32:19.199Z,18.67
2019-04-25T08:33:23.768Z,18.47
2019-04-25T08:34:30.188Z,18.51
2019-04-25T08:35:36.534Z,18.66
2019-04-25T08:36:41.541Z,18.78
2019-04-25T08:37:46.310Z,19.02
2019-04-25T08:38:51.056Z,19.30
2019-04-25T08:39:55.846Z,19.36
2019-04-25T08:41:01.557Z,19.35
2019-04-25T08:42:06.015Z,19.47
2019-04-25T08:43:10.766Z,19.76
2019-04-25T08:44:15.257Z,19.71
2019-04-25T08:45:20.830Z,19.70
2019-04-25T08:46:25.427Z,19.69
2019-04-25T08:47:30.436Z,19.98
2019-04-25T08:48:37.398Z,20.16
2019-04-25T08:49:45.759Z,20.28
2019-04-25T08:50:57.681Z,20.33
2019-04-25T08:52:02.136Z,20.09
2019-04-25T08:53:06.589Z,20.02
2019-04-25T08:54:18.431Z,20.02
2019-04-25T08:55:42.058Z,19.95
2019-04-25T08:56:46.579Z,19.97
2019-04-25T08:57:55.921Z,20.04
2019-04-25T08:59:06.231Z,20.00
2019-04-25T09:00:14.399Z,19.86
2019-04-25T09:01:26.378Z,19.74
2019-04-25T09:02:37.136Z,19.65
2019-04-25T09:03:48.616Z,19.77
2019-04-25T09:05:10.963Z,19.88
2019-04-25T09:06:15.767Z,19.67
2019-04-25T09:07:20.235Z,19.71
2019-04-25T09:08:24.764Z,19.69
2019-04-25T09:09:29.227Z,19.81
2019-04-25T09:10:36.423Z,19.75
2019-04-25T09:11:40.165Z,19.72
2019-04-25T09:12:45.355Z,19.79
2019-04-25T09:13:49.855Z,19.83
2019-04-25T09:14:54.825Z,19.82
2019-04-25T09:16:00.066Z,19.89
2019-04-25T09:17:04.927Z,19.96
2019-04-25T09:18:09.555Z,20.00
2019-04-25T09:19:14.309Z,19.90
2019-04-25T09:20:20.134Z,19.68
2019-04-25T09:21:25.234Z,19.57
2019-04-25T09:22:29.941Z,19.60
2019-04-25T09:23:36.468Z,19.77
2019-04-25T09:24:42.099Z,19.96
2019-04-25T09:25:46.946Z,20.04
2019-04-25T09:26:53.918Z,20.06
2019-04-25T09:27:58.681Z,20.11
2019-04-25T09:29:15.989Z,20.32
2019-04-25T09:30:10.263Z,20.48
2019-04-25T09:31:14.984Z,20.45
2019-04-25T09:32:19.602Z,20.62
2019-04-25T09:33:24.109Z,20.81
2019-04-25T09:34:28.732Z,21.06
2019-04-25T09:35:33.666Z,21.11
2019-04-25T09:36:38.250Z,21.17
2019-04-25T09:37:44.783Z,21.23
2019-04-25T09:38:53.843Z,21.25
2019-04-25T09:40:05.686Z,21.38
2019-04-25T09:41:10.977Z,21.34
2019-04-25T09:42:15.989Z,21.34
2019-04-25T09:43:21.101Z,21.56
2019-04-25T09:44:33.178Z,21.63
2019-04-25T09:45:43.903Z,21.57
2019-04-25T09:46:49.305Z,21.59
2019-04-25T09:47:55.762Z,21.58
2019-04-25T09:49:07.611Z,21.82
2019-04-25T09:50:13.970Z,21.93
2019-04-25T09:51:23.608Z,21.83
2019-04-25T09:52:28.115Z,21.73
2019-04-25T09:53:34.833Z,21.74
2019-04-25T09:54:53.527Z,21.99
2019-04-25T09:56:04.116Z,22.33
2019-04-25T09:57:11.361Z,22.31
2019-04-25T09:58:23.862Z,22.12
2019-04-25T09:59:30.125Z,22.06
2019-04-25T10:00:40.409Z,22.28
2019-04-25T10:01:48.708Z,22.44
2019-04-25T10:02:55.354Z,22.65
2019-04-25T10:03:59.837Z,22.54
2019-04-25T10:05:08.285Z,22.86
2019-04-25T10:06:14.841Z,22.97
2019-04-25T10:07:19.287Z,23.19
2019-04-25T10:08:24.251Z,23.24
2019-04-25T10:09:29.037Z,23.19
2019-04-25T10:10:33.921Z,23.36
2019-04-25T10:11:38.423Z,23.59
2019-04-25T10:12:44.225Z,23.52
2019-04-25T10:13:53.272Z,23.50
2019-04-25T10:15:20.406Z,23.31
2019-04-25T10:16:25.250Z,22.77
2019-04-25T10:17:30.005Z,22.80
2019-04-25T10:18:35.627Z,22.85
2019-04-25T10:19:40.980Z,23.05
2019-04-25T10:20:46.316Z,23.19
2019-04-25T10:21:51.822Z,23.29
2019-04-25T10:22:57.021Z,23.29
2019-04-25T10:24:03.530Z,23.28
2019-04-25T10:25:08.149Z,23.15
2019-04-25T10:26:13.539Z,23.21
2019-04-25T10:27:17.985Z,23.30
2019-04-25T10:28:23.371Z,23.20
2019-04-25T10:29:39.346Z,23.49
2019-04-25T10:30:34.822Z,23.64
2019-04-25T10:31:39.874Z,23.57
2019-04-25T10:32:46.227Z,23.56
2019-04-25T10:33:50.820Z,23.46
2019-04-25T10:34:55.571Z,23.61
2019-04-25T10:36:01.205Z,23.80
2019-04-25T10:37:06.439Z,23.88
2019-04-25T10:38:10.894Z,23.92
2019-04-25T10:39:15.450Z,24.23
2019-04-25T10:40:20.911Z,24.15
2019-04-25T10:41:25.531Z,24.06
2019-04-25T10:42:30.146Z,24.15
2019-04-25T10:43:35.342Z,24.02
2019-04-25T10:44:40.174Z,23.90
2019-04-25T10:45:48.703Z,23.82
2019-04-25T10:46:54.605Z,23.69
2019-04-25T10:48:00.241Z,23.79
2019-04-25T10:49:04.964Z,23.79
2019-04-25T10:50:09.792Z,23.68
2019-04-25T10:51:14.320Z,23.94
2019-04-25T10:52:19.490Z,24.06
2019-04-25T10:53:25.169Z,24.15
2019-04-25T10:54:30.181Z,24.26
2019-04-25T10:55:34.881Z,24.33
2019-04-25T10:56:40.141Z,24.36
2019-04-25T10:57:45.527Z,24.42
2019-04-25T10:58:50.911Z,24.03
2019-04-25T11:00:06.146Z,24.26
2019-04-25T11:01:01.975Z,24.30
2019-04-25T11:02:08.174Z,24.31
2019-04-25T11:03:30.251Z,24.38
2019-04-25T11:04:36.354Z,24.44
2019-04-25T11:05:41.495Z,24.44
2019-04-25T11:06:45.959Z,24.69
2019-04-25T11:07:50.448Z,24.67
2019-04-25T11:08:57.574Z,24.87
2019-04-25T11:10:03.603Z,24.92
2019-04-25T11:11:10.814Z,24.83
2019-04-25T11:12:16.288Z,25.10
2019-04-25T11:13:24.891Z,25.11
2019-04-25T11:14:30.976Z,25.23
2019-04-25T11:15:36.145Z,25.15
2019-04-25T11:16:40.697Z,25.11
2019-04-25T11:17:46.770Z,25.24
2019-04-25T11:18:52.594Z,25.33
2019-04-25T11:19:57.822Z,24.99
2019-04-25T11:21:05.595Z,25.03
2019-04-25T11:22:08.846Z,24.75
2019-04-25T11:23:13.963Z,24.56
2019-04-25T11:24:18.520Z,24.93
2019-04-25T11:25:24.503Z,25.40
2019-04-25T11:26:29.026Z,25.47
2019-04-25T11:27:34.032Z,25.54
2019-04-25T11:28:40.639Z,25.52
2019-04-25T11:29:46.035Z,25.63
2019-04-25T11:30:52.746Z,25.51
2019-04-25T11:31:58.344Z,25.64
2019-04-25T11:33:03.586Z,25.81
2019-04-25T11:34:09.443Z,25.67
2019-04-25T11:35:14.968Z,25.31
2019-04-25T11:36:20.039Z,25.78
2019-04-25T11:37:26.765Z,25.93
2019-04-25T11:38:38.877Z,25.95
2019-04-25T11:39:45.997Z,25.99
2019-04-25T11:40:55.162Z,25.51
2019-04-25T11:42:00.024Z,26.10
2019-04-25T11:43:04.693Z,26.05
2019-04-25T11:44:09.147Z,26.12
2019-04-25T11:45:14.409Z,25.99
2019-04-25T11:46:19.028Z,26.28
2019-04-25T11:47:25.580Z,26.28
2019-04-25T11:48:30.314Z,26.27
2019-04-25T11:49:35.288Z,26.39
2019-04-25T11:50:40.932Z,26.42
2019-04-25T11:51:46.106Z,26.63
2019-04-25T11:52:51.011Z,26.44
2019-04-25T11:53:55.609Z,26.50
2019-04-25T11:55:00.416Z,26.84
2019-04-25T11:56:05.035Z,26.51
2019-04-25T11:57:09.485Z,26.40
2019-04-25T11:58:14.332Z,26.17
2019-04-25T11:59:18.945Z,25.71
2019-04-25T12:00:30.623Z,25.75
2019-04-25T12:01:35.401Z,26.35
2019-04-25T12:02:39.929Z,26.66
2019-04-25T12:03:46.608Z,26.52
2019-04-25T12:04:51.056Z,26.81
2019-04-25T12:05:56.872Z,26.77
2019-04-25T12:07:03.843Z,26.86
2019-04-25T12:08:08.683Z,26.50
2019-04-25T12:09:13.871Z,26.38
2019-04-25T12:10:19.579Z,26.58
2019-04-25T12:11:25.249Z,26.45
2019-04-25T12:12:29.822Z,26.42
2019-04-25T12:13:34.563Z,26.78
2019-04-25T12:14:39.362Z,27.23
2019-04-25T12:15:46.043Z,27.30
2019-04-25T12:16:51.899Z,27.18
2019-04-25T12:17:57.621Z,27.19
2019-04-25T12:19:02.126Z,27.11
2019-04-25T12:20:06.946Z,26.74
2019-04-25T12:21:11.506Z,26.87
2019-04-25T12:22:15.945Z,27.22
2019-04-25T12:23:20.726Z,27.18
2019-04-25T12:24:25.473Z,27.50
2019-04-25T12:25:29.939Z,27.31
2019-04-25T12:26:34.411Z,27.25
2019-04-25T12:27:39.151Z,27.28
2019-04-25T12:28:44.991Z,27.15
2019-04-25T12:29:50.343Z,26.73
2019-04-25T12:30:55.419Z,26.88
2019-04-25T12:32:01.212Z,26.69
2019-04-25T12:33:18.012Z,26.84
2019-04-25T12:34:11.839Z,26.86
2019-04-25T12:35:16.292Z,27.19
2019-04-25T12:36:20.751Z,27.09
2019-04-25T12:37:25.287Z,27.11
2019-04-25T12:38:29.763Z,27.29
2019-04-25T12:39:35.194Z,27.30
2019-04-25T12:40:39.942Z,27.40
2019-04-25T12:41:46.753Z,27.78
2019-04-25T12:42:52.191Z,27.61
2019-04-25T12:44:04.071Z,27.11
2019-04-25T12:45:11.509Z,27.27
2019-04-25T12:46:20.402Z,27.45
2019-04-25T12:47:29.208Z,27.57
2019-04-25T12:48:34.142Z,27.78
2019-04-25T12:49:38.571Z,27.68
2019-04-25T12:50:43.965Z,27.88
2019-04-25T12:51:48.531Z,27.97
2019-04-25T12:52:54.675Z,27.74
2019-04-25T12:53:59.243Z,27.76
2019-04-25T12:55:05.345Z,27.82
2019-04-25T12:56:09.803Z,27.79
2019-04-25T12:57:14.630Z,27.56
2019-04-25T12:58:19.091Z,27.75
2019-04-25T12:59:23.869Z,28.23
2019-04-25T13:00:30.221Z,28.33
2019-04-25T13:01:35.046Z,28.48
2019-04-25T13:02:39.505Z,28.33
2019-04-25T13:03:44.009Z,28.19
2019-04-25T13:04:48.440Z,27.97
2019-04-25T13:05:54.079Z,28.16
2019-04-25T13:06:59.874Z,28.15
2019-04-25T13:08:04.891Z,27.83
2019-04-25T13:09:11.755Z,27.72
2019-04-25T13:10:17.473Z,27.80
2019-04-25T13:11:23.823Z,27.58
2019-04-25T13:12:28.451Z,27.74
2019-04-25T13:13:34.012Z,28.07
2019-04-25T13:14:39.122Z,27.91
2019-04-25T13:15:45.989Z,27.99
2019-04-25T13:16:50.426Z,27.55
2019-04-25T13:17:55.163Z,27.99
2019-04-25T13:19:10.082Z,28.43
2019-04-25T13:20:09.059Z,28.43
2019-04-25T13:21:14.541Z,28.29
2019-04-25T13:22:19.412Z,28.13
2019-04-25T13:23:24.285Z,27.91
2019-04-25T13:24:28.707Z,28.19
2019-04-25T13:25:34.303Z,28.28
2019-04-25T13:26:43.554Z,27.81
2019-04-25T13:27:52.280Z,28.36
2019-04-25T13:29:14.657Z,28.17
2019-04-25T13:30:21.070Z,28.43
2019-04-25T13:31:33.435Z,28.35
2019-04-25T13:32:56.577Z,28.65
2019-04-25T13:34:04.670Z,28.91
2019-04-25T13:35:23.501Z,29.14
2019-04-25T13:36:28.319Z,28.94
2019-04-25T13:37:34.179Z,28.95
2019-04-25T13:38:38.639Z,28.74
2019-04-25T13:39:44.204Z,28.54
2019-04-25T13:40:49.019Z,28.39
2019-04-25T13:41:54.402Z,28.52
2019-04-25T13:43:00.128Z,28.57
2019-04-25T13:44:05.234Z,28.38
2019-04-25T13:45:10.258Z,27.83
2019-04-25T13:47:19.498Z,28.06
2019-04-25T13:48:26.330Z,28.17
2019-04-25T13:49:31.588Z,28.04
2019-04-25T13:50:36.543Z,26.93
2019-04-25T13:51:41.009Z,26.89
2019-04-25T13:52:45.856Z,27.31
2019-04-25T13:53:50.592Z,27.49
2019-04-25T13:54:55.372Z,27.59
2019-04-25T13:56:00.125Z,28.19
2019-04-25T13:57:07.261Z,28.41
2019-04-25T13:58:14.244Z,28.73
2019-04-25T13:59:18.916Z,28.96
2019-04-25T14:00:25.107Z,29.18
2019-04-25T14:01:31.774Z,29.34
2019-04-25T14:02:36.241Z,29.16
2019-04-25T14:03:40.834Z,28.97
2019-04-25T14:04:45.314Z,28.96
2019-04-25T14:05:50.072Z,28.91
2019-04-25T14:06:54.893Z,28.37
2019-04-25T14:07:59.571Z,27.77
2019-04-25T14:09:07.266Z,27.90
2019-04-25T14:10:14.205Z,28.25
2019-04-25T14:11:18.826Z,28.37
2019-04-25T14:12:26.360Z,28.59
2019-04-25T14:13:30.071Z,28.34
2019-04-25T14:14:36.094Z,28.40
2019-04-25T14:15:43.128Z,28.82
2019-04-25T14:16:55.443Z,28.55